sensor_id;sensor_type;location;lat;lon;timestamp;temperature;humidity
13375;DHT22;6756;51.354;15.754;2023-06-01T00:00:49;8.60;1.00
13375;DHT22;6756;51.354;15.754;2023-06-01T00:04:53;8.60;1.00
13375;DHT22;6756;51.354;15.754;2023-06-01T00:08:57;8.50;1.00
13375;DHT22;6756;51.354;15.754;2023-06-01T00:12:58;8.50;99.90
13375;DHT22;6756;51.354;15.754;2023-06-01T00:16:59;8.50;1.00
13375;DHT22;6756;51.354;15.754;2023-06-01T00:21:00;8.40;99.90
13375;DHT22;6756;51.354;15.754;2023-06-01T00:25:01;8.30;99.90
13375;DHT22;6756;51.354;15.754;2023-06-01T00:29:02;8.20;99.90
13375;DHT22;6756;51.354;15.754;2023-06-01T00:33:03;8.10;1.00
13375;DHT22;6756;51.354;15.754;2023-06-01T00:37:04;8.10;1.00
13375;DHT22;6756;51.354;15.754;2023-06-01T00:41:05;8.10;99.90
13375;DHT22;6756;51.354;15.754;2023-06-01T00:45:06;8.10;99.90
13375;DHT22;6756;51.354;15.754;2023-06-01T00:49:07;8.10;51.60
13375;DHT22;6756;51.354;15.754;2023-06-01T00:53:12;8.10;99.90
13375;DHT22;6756;51.354;15.754;2023-06-01T00:57:16;8.00;99.90
13375;DHT22;6756;51.354;15.754;2023-06-01T01:01:18;8.10;1.00
13375;DHT22;6756;51.354;15.754;2023-06-01T01:05:31;8.10;99.90
13375;DHT22;6756;51.354;15.754;2023-06-01T01:09:41;8.10;99.90
13375;DHT22;6756;51.354;15.754;2023-06-01T01:18:30;8.40;99.90
13375;DHT22;6756;51.354;15.754;2023-06-01T01:31:04;9.50;1.00
13375;DHT22;6756;51.354;15.754;2023-06-01T01:35:07;9.90;9.10
13375;DHT22;6756;51.354;15.754;2023-06-01T01:39:11;10.20;99.90
13375;DHT22;6756;51.354;15.754;2023-06-01T01:43:13;10.50;10.80
13375;DHT22;6756;51.354;15.754;2023-06-01T01:47:23;10.60;1.00
13375;DHT22;6756;51.354;15.754;2023-06-01T01:55:38;10.60;99.90
13375;DHT22;6756;51.354;15.754;2023-06-01T01:59:40;10.70;99.90
13375;DHT22;6756;51.354;15.754;2023-06-01T02:03:41;10.60;99.90
13375;DHT22;6756;51.354;15.754;2023-06-01T02:07:42;10.50;99.90
13375;DHT22;6756;51.354;15.754;2023-06-01T02:11:43;10.50;99.90
13375;DHT22;6756;51.354;15.754;2023-06-01T02:15:44;10.60;99.90
13375;DHT22;6756;51.354;15.754;2023-06-01T02:19:45;10.60;99.90
13375;DHT22;6756;51.354;15.754;2023-06-01T02:23:46;10.70;99.90
13375;DHT22;6756;51.354;15.754;2023-06-01T02:27:47;10.70;99.90
13375;DHT22;6756;51.354;15.754;2023-06-01T02:31:49;10.70;99.90
13375;DHT22;6756;51.354;15.754;2023-06-01T02:35:51;10.60;99.90
13375;DHT22;6756;51.354;15.754;2023-06-01T02:39:58;10.60;99.90
13375;DHT22;6756;51.354;15.754;2023-06-01T02:43:59;10.50;99.90
13375;DHT22;6756;51.354;15.754;2023-06-01T02:48:00;10.50;99.90
13375;DHT22;6756;51.354;15.754;2023-06-01T02:52:01;10.60;99.90
13375;DHT22;6756;51.354;15.754;2023-06-01T02:56:02;10.60;99.90
13375;DHT22;6756;51.354;15.754;2023-06-01T03:00:04;10.70;99.90
13375;DHT22;6756;51.354;15.754;2023-06-01T03:04:06;10.70;99.90
13375;DHT22;6756;51.354;15.754;2023-06-01T03:08:07;10.80;99.90
13375;DHT22;6756;51.354;15.754;2023-06-01T03:12:09;10.90;99.90
13375;DHT22;6756;51.354;15.754;2023-06-01T03:16:10;11.00;99.90
13375;DHT22;6756;51.354;15.754;2023-06-01T03:20:11;11.20;99.90
13375;DHT22;6756;51.354;15.754;2023-06-01T03:24:16;11.50;99.90
13375;DHT22;6756;51.354;15.754;2023-06-01T03:28:19;11.60;99.90
13375;DHT22;6756;51.354;15.754;2023-06-01T03:32:20;11.80;99.90
13375;DHT22;6756;51.354;15.754;2023-06-01T03:36:21;12.00;99.90
13375;DHT22;6756;51.354;15.754;2023-06-01T03:40:23;12.00;97.70
13375;DHT22;6756;51.354;15.754;2023-06-01T03:44:24;12.10;92.50
13375;DHT22;6756;51.354;15.754;2023-06-01T03:48:25;12.20;84.50
13375;DHT22;6756;51.354;15.754;2023-06-01T03:52:26;12.70;61.10
13375;DHT22;6756;51.354;15.754;2023-06-01T03:56:27;13.50;13.00
13375;DHT22;6756;51.354;15.754;2023-06-01T04:00:30;14.30;1.00
13375;DHT22;6756;51.354;15.754;2023-06-01T04:04:31;15.40;1.00
13375;DHT22;6756;51.354;15.754;2023-06-01T04:08:33;16.40;1.00
13375;DHT22;6756;51.354;15.754;2023-06-01T04:12:34;16.80;1.00
13375;DHT22;6756;51.354;15.754;2023-06-01T04:16:36;17.00;1.00
13375;DHT22;6756;51.354;15.754;2023-06-01T04:20:37;17.80;1.00
13375;DHT22;6756;51.354;15.754;2023-06-01T04:24:40;18.50;1.00
13375;DHT22;6756;51.354;15.754;2023-06-01T04:28:45;18.20;1.00
13375;DHT22;6756;51.354;15.754;2023-06-01T04:32:47;17.50;1.00
13375;DHT22;6756;51.354;15.754;2023-06-01T04:36:49;16.70;1.00
13375;DHT22;6756;51.354;15.754;2023-06-01T04:40:52;17.00;1.00
13375;DHT22;6756;51.354;15.754;2023-06-01T04:44:56;17.90;1.00
13375;DHT22;6756;51.354;15.754;2023-06-01T04:48:59;18.80;1.00
13375;DHT22;6756;51.354;15.754;2023-06-01T04:53:04;19.40;1.00
13375;DHT22;6756;51.354;15.754;2023-06-01T04:57:05;19.60;1.00
13375;DHT22;6756;51.354;15.754;2023-06-01T05:01:06;19.60;1.00
13375;DHT22;6756;51.354;15.754;2023-06-01T05:05:08;19.70;1.00
13375;DHT22;6756;51.354;15.754;2023-06-01T05:09:09;19.50;1.00
13375;DHT22;6756;51.354;15.754;2023-06-01T05:13:10;18.90;1.00
13375;DHT22;6756;51.354;15.754;2023-06-01T05:17:11;18.20;1.00
13375;DHT22;6756;51.354;15.754;2023-06-01T05:21:13;17.60;1.00
13375;DHT22;6756;51.354;15.754;2023-06-01T05:25:14;17.20;1.00
13375;DHT22;6756;51.354;15.754;2023-06-01T05:29:15;17.10;1.00
13375;DHT22;6756;51.354;15.754;2023-06-01T05:33:16;17.20;1.00
13375;DHT22;6756;51.354;15.754;2023-06-01T05:37:17;17.60;1.00
13375;DHT22;6756;51.354;15.754;2023-06-01T05:41:20;18.00;1.00
13375;DHT22;6756;51.354;15.754;2023-06-01T05:45:26;18.30;1.00
13375;DHT22;6756;51.354;15.754;2023-06-01T05:49:27;18.50;1.00
13375;DHT22;6756;51.354;15.754;2023-06-01T05:53:31;18.50;1.00
13375;DHT22;6756;51.354;15.754;2023-06-01T05:57:32;18.30;1.00
13375;DHT22;6756;51.354;15.754;2023-06-01T06:01:33;18.30;1.00
13375;DHT22;6756;51.354;15.754;2023-06-01T06:05:34;18.30;1.00
13375;DHT22;6756;51.354;15.754;2023-06-01T06:09:35;18.40;1.00
13375;DHT22;6756;51.354;15.754;2023-06-01T06:13:36;18.50;1.00
13375;DHT22;6756;51.354;15.754;2023-06-01T06:17:37;18.70;1.00
13375;DHT22;6756;51.354;15.754;2023-06-01T06:21:38;18.90;1.00
13375;DHT22;6756;51.354;15.754;2023-06-01T06:25:40;19.20;1.00
13375;DHT22;6756;51.354;15.754;2023-06-01T06:29:41;19.40;1.00
13375;DHT22;6756;51.354;15.754;2023-06-01T06:33:42;19.60;1.00
13375;DHT22;6756;51.354;15.754;2023-06-01T06:37:43;19.70;1.00
13375;DHT22;6756;51.354;15.754;2023-06-01T06:41:47;19.70;1.00
13375;DHT22;6756;51.354;15.754;2023-06-01T06:45:48;19.60;1.00
13375;DHT22;6756;51.354;15.754;2023-06-01T06:49:49;19.40;1.00
13375;DHT22;6756;51.354;15.754;2023-06-01T06:53:51;19.40;1.00
13375;DHT22;6756;51.354;15.754;2023-06-01T06:57:55;19.50;1.00
13375;DHT22;6756;51.354;15.754;2023-06-01T07:01:56;19.60;1.00
13375;DHT22;6756;51.354;15.754;2023-06-01T07:06:01;19.80;1.00
13375;DHT22;6756;51.354;15.754;2023-06-01T07:10:04;20.00;1.00
13375;DHT22;6756;51.354;15.754;2023-06-01T07:14:05;20.10;1.00
13375;DHT22;6756;51.354;15.754;2023-06-01T07:18:06;20.20;1.00
13375;DHT22;6756;51.354;15.754;2023-06-01T07:22:07;20.40;1.00
13375;DHT22;6756;51.354;15.754;2023-06-01T07:26:08;20.60;1.00
13375;DHT22;6756;51.354;15.754;2023-06-01T07:30:10;20.70;1.00
13375;DHT22;6756;51.354;15.754;2023-06-01T07:34:12;20.70;1.00
13375;DHT22;6756;51.354;15.754;2023-06-01T07:38:13;20.90;1.00
13375;DHT22;6756;51.354;15.754;2023-06-01T07:42:15;21.20;1.00
13375;DHT22;6756;51.354;15.754;2023-06-01T07:46:16;21.20;1.00
13375;DHT22;6756;51.354;15.754;2023-06-01T07:50:17;21.30;1.00
13375;DHT22;6756;51.354;15.754;2023-06-01T07:54:21;21.30;1.00
13375;DHT22;6756;51.354;15.754;2023-06-01T07:58:22;21.40;1.00
13375;DHT22;6756;51.354;15.754;2023-06-01T08:02:23;21.30;1.00
13375;DHT22;6756;51.354;15.754;2023-06-01T08:06:24;21.40;1.00
13375;DHT22;6756;51.354;15.754;2023-06-01T08:10:25;21.60;1.00
13375;DHT22;6756;51.354;15.754;2023-06-01T08:14:26;21.60;1.00
13375;DHT22;6756;51.354;15.754;2023-06-01T08:18:29;21.70;1.00
13375;DHT22;6756;51.354;15.754;2023-06-01T08:22:30;21.80;1.00
13375;DHT22;6756;51.354;15.754;2023-06-01T08:26:31;21.80;1.00
13375;DHT22;6756;51.354;15.754;2023-06-01T08:30:31;21.90;1.00
13375;DHT22;6756;51.354;15.754;2023-06-01T08:34:32;22.10;1.00
13375;DHT22;6756;51.354;15.754;2023-06-01T08:38:34;22.20;1.00
13375;DHT22;6756;51.354;15.754;2023-06-01T08:46:46;22.00;1.00
13375;DHT22;6756;51.354;15.754;2023-06-01T08:50:53;22.20;1.00
13375;DHT22;6756;51.354;15.754;2023-06-01T08:54:54;22.20;1.00
13375;DHT22;6756;51.354;15.754;2023-06-01T08:58:57;22.50;1.00
13375;DHT22;6756;51.354;15.754;2023-06-01T09:03:02;22.60;1.00
13375;DHT22;6756;51.354;15.754;2023-06-01T09:07:05;22.70;1.00
13375;DHT22;6756;51.354;15.754;2023-06-01T09:11:09;22.90;1.00
13375;DHT22;6756;51.354;15.754;2023-06-01T09:15:19;22.90;1.00
13375;DHT22;6756;51.354;15.754;2023-06-01T09:19:20;22.80;1.00
13375;DHT22;6756;51.354;15.754;2023-06-01T09:23:25;23.00;1.00
13375;DHT22;6756;51.354;15.754;2023-06-01T09:27:30;22.90;1.00
13375;DHT22;6756;51.354;15.754;2023-06-01T09:31:46;22.80;1.00
13375;DHT22;6756;51.354;15.754;2023-06-01T09:35:49;23.00;1.00
13375;DHT22;6756;51.354;15.754;2023-06-01T09:39:50;23.30;1.00
13375;DHT22;6756;51.354;15.754;2023-06-01T09:43:51;23.20;1.00
13375;DHT22;6756;51.354;15.754;2023-06-01T09:47:52;23.20;1.00
13375;DHT22;6756;51.354;15.754;2023-06-01T09:56:11;23.50;1.00
13375;DHT22;6756;51.354;15.754;2023-06-01T10:00:23;23.30;1.00
13375;DHT22;6756;51.354;15.754;2023-06-01T10:04:26;23.40;1.00
13375;DHT22;6756;51.354;15.754;2023-06-01T10:08:28;23.50;1.00
13375;DHT22;6756;51.354;15.754;2023-06-01T10:12:31;23.60;1.00
13375;DHT22;6756;51.354;15.754;2023-06-01T10:16:32;23.70;1.00
13375;DHT22;6756;51.354;15.754;2023-06-01T10:20:36;23.90;1.00
13375;DHT22;6756;51.354;15.754;2023-06-01T10:24:38;23.90;1.00
13375;DHT22;6756;51.354;15.754;2023-06-01T10:28:46;23.70;1.00
13375;DHT22;6756;51.354;15.754;2023-06-01T10:32:50;23.80;1.00
13375;DHT22;6756;51.354;15.754;2023-06-01T10:41:27;24.20;1.00
13375;DHT22;6756;51.354;15.754;2023-06-01T10:53:52;24.00;1.00
13375;DHT22;6756;51.354;15.754;2023-06-01T10:58:18;24.20;1.00
13375;DHT22;6756;51.354;15.754;2023-06-01T11:02:24;24.40;1.00
13375;DHT22;6756;51.354;15.754;2023-06-01T11:06:28;24.40;1.00
13375;DHT22;6756;51.354;15.754;2023-06-01T11:15:09;24.40;1.00
13375;DHT22;6756;51.354;15.754;2023-06-01T11:19:20;24.30;1.00
13375;DHT22;6756;51.354;15.754;2023-06-01T11:23:27;24.40;1.00
13375;DHT22;6756;51.354;15.754;2023-06-01T11:27:31;24.60;1.00
13375;DHT22;6756;51.354;15.754;2023-06-01T11:31:44;24.40;1.00
13375;DHT22;6756;51.354;15.754;2023-06-01T11:35:46;24.60;1.00
13375;DHT22;6756;51.354;15.754;2023-06-01T11:39:48;24.70;1.00
13375;DHT22;6756;51.354;15.754;2023-06-01T11:43:56;24.90;1.00
13375;DHT22;6756;51.354;15.754;2023-06-01T11:47:57;25.00;1.00
13375;DHT22;6756;51.354;15.754;2023-06-01T11:52:13;25.20;1.00
13375;DHT22;6756;51.354;15.754;2023-06-01T11:56:14;25.40;1.00
13375;DHT22;6756;51.354;15.754;2023-06-01T12:00:19;25.60;1.00
13375;DHT22;6756;51.354;15.754;2023-06-01T12:04:23;25.80;1.00
13375;DHT22;6756;51.354;15.754;2023-06-01T12:08:26;25.70;1.00
13375;DHT22;6756;51.354;15.754;2023-06-01T12:12:29;25.40;1.00
13375;DHT22;6756;51.354;15.754;2023-06-01T12:17:03;25.20;1.00
13375;DHT22;6756;51.354;15.754;2023-06-01T12:21:21;25.10;1.00
13375;DHT22;6756;51.354;15.754;2023-06-01T12:25:25;25.00;1.00
13375;DHT22;6756;51.354;15.754;2023-06-01T12:29:48;25.00;1.00
13375;DHT22;6756;51.354;15.754;2023-06-01T12:33:55;25.00;1.00
13375;DHT22;6756;51.354;15.754;2023-06-01T12:38:07;25.20;1.00
13375;DHT22;6756;51.354;15.754;2023-06-01T12:42:10;25.20;1.00
13375;DHT22;6756;51.354;15.754;2023-06-01T12:46:28;25.40;1.00
13375;DHT22;6756;51.354;15.754;2023-06-01T12:50:30;25.40;1.00
13375;DHT22;6756;51.354;15.754;2023-06-01T12:54:32;25.50;1.00
13375;DHT22;6756;51.354;15.754;2023-06-01T12:58:32;25.60;1.00
13375;DHT22;6756;51.354;15.754;2023-06-01T13:02:33;25.60;1.00
13375;DHT22;6756;51.354;15.754;2023-06-01T13:06:35;25.80;1.00
13375;DHT22;6756;51.354;15.754;2023-06-01T13:10:37;25.90;1.00
13375;DHT22;6756;51.354;15.754;2023-06-01T13:14:39;25.80;1.00
13375;DHT22;6756;51.354;15.754;2023-06-01T13:18:40;25.60;1.00
13375;DHT22;6756;51.354;15.754;2023-06-01T13:22:41;25.80;1.00
13375;DHT22;6756;51.354;15.754;2023-06-01T13:26:43;25.80;1.00
13375;DHT22;6756;51.354;15.754;2023-06-01T13:30:44;25.90;1.00
13375;DHT22;6756;51.354;15.754;2023-06-01T13:34:45;26.00;1.00
13375;DHT22;6756;51.354;15.754;2023-06-01T13:38:46;25.80;1.00
13375;DHT22;6756;51.354;15.754;2023-06-01T13:42:47;25.60;1.00
13375;DHT22;6756;51.354;15.754;2023-06-01T13:46:48;25.60;1.00
13375;DHT22;6756;51.354;15.754;2023-06-01T13:50:50;25.70;1.00
13375;DHT22;6756;51.354;15.754;2023-06-01T13:54:52;25.90;1.00
13375;DHT22;6756;51.354;15.754;2023-06-01T13:58:53;26.00;1.00
13375;DHT22;6756;51.354;15.754;2023-06-01T14:02:55;25.90;1.00
13375;DHT22;6756;51.354;15.754;2023-06-01T14:06:56;26.00;1.00
13375;DHT22;6756;51.354;15.754;2023-06-01T14:10:57;25.90;1.00
13375;DHT22;6756;51.354;15.754;2023-06-01T14:14:59;26.20;1.00
13375;DHT22;6756;51.354;15.754;2023-06-01T14:18:59;26.30;1.00
13375;DHT22;6756;51.354;15.754;2023-06-01T14:23:01;26.00;1.00
13375;DHT22;6756;51.354;15.754;2023-06-01T14:27:03;25.90;1.00
13375;DHT22;6756;51.354;15.754;2023-06-01T14:31:04;26.00;1.00
13375;DHT22;6756;51.354;15.754;2023-06-01T14:35:08;26.00;1.00
13375;DHT22;6756;51.354;15.754;2023-06-01T14:39:16;25.90;1.00
13375;DHT22;6756;51.354;15.754;2023-06-01T14:43:17;25.80;1.00
13375;DHT22;6756;51.354;15.754;2023-06-01T14:47:18;25.70;1.00
13375;DHT22;6756;51.354;15.754;2023-06-01T14:51:19;25.80;1.00
13375;DHT22;6756;51.354;15.754;2023-06-01T14:55:20;25.90;1.00
13375;DHT22;6756;51.354;15.754;2023-06-01T14:59:25;25.80;1.00
13375;DHT22;6756;51.354;15.754;2023-06-01T15:03:26;25.70;1.00
13375;DHT22;6756;51.354;15.754;2023-06-01T15:07:27;25.80;1.00
13375;DHT22;6756;51.354;15.754;2023-06-01T15:11:28;25.80;1.00
13375;DHT22;6756;51.354;15.754;2023-06-01T15:15:29;25.80;1.00
13375;DHT22;6756;51.354;15.754;2023-06-01T15:19:30;25.80;1.00
13375;DHT22;6756;51.354;15.754;2023-06-01T15:23:31;25.60;1.00
13375;DHT22;6756;51.354;15.754;2023-06-01T15:27:32;25.70;1.00
13375;DHT22;6756;51.354;15.754;2023-06-01T15:31:34;25.60;1.00
13375;DHT22;6756;51.354;15.754;2023-06-01T15:35:35;25.70;1.00
13375;DHT22;6756;51.354;15.754;2023-06-01T15:39:40;25.60;1.00
13375;DHT22;6756;51.354;15.754;2023-06-01T15:43:41;25.60;1.00
13375;DHT22;6756;51.354;15.754;2023-06-01T15:47:44;25.50;1.00
13375;DHT22;6756;51.354;15.754;2023-06-01T15:51:50;25.60;1.00
13375;DHT22;6756;51.354;15.754;2023-06-01T15:55:53;25.60;1.00
13375;DHT22;6756;51.354;15.754;2023-06-01T15:59:55;25.40;1.00
13375;DHT22;6756;51.354;15.754;2023-06-01T16:03:57;25.30;1.00
13375;DHT22;6756;51.354;15.754;2023-06-01T16:07:58;25.30;1.00
13375;DHT22;6756;51.354;15.754;2023-06-01T16:11:59;25.20;1.00
13375;DHT22;6756;51.354;15.754;2023-06-01T16:16:00;25.00;1.00
13375;DHT22;6756;51.354;15.754;2023-06-01T16:20:03;24.80;1.00
13375;DHT22;6756;51.354;15.754;2023-06-01T16:24:07;24.80;1.00
13375;DHT22;6756;51.354;15.754;2023-06-01T16:28:07;24.70;1.00
13375;DHT22;6756;51.354;15.754;2023-06-01T16:32:08;24.60;1.00
13375;DHT22;6756;51.354;15.754;2023-06-01T16:36:09;24.60;1.00
13375;DHT22;6756;51.354;15.754;2023-06-01T16:40:10;24.50;1.00
13375;DHT22;6756;51.354;15.754;2023-06-01T16:44:11;24.30;1.00
13375;DHT22;6756;51.354;15.754;2023-06-01T16:48:13;24.20;1.00
13375;DHT22;6756;51.354;15.754;2023-06-01T16:52:14;24.20;1.00
13375;DHT22;6756;51.354;15.754;2023-06-01T16:56:16;24.10;1.00
13375;DHT22;6756;51.354;15.754;2023-06-01T17:00:17;24.00;1.00
13375;DHT22;6756;51.354;15.754;2023-06-01T17:04:18;23.90;1.00
13375;DHT22;6756;51.354;15.754;2023-06-01T17:08:27;23.80;1.00
13375;DHT22;6756;51.354;15.754;2023-06-01T17:12:28;23.80;1.00
13375;DHT22;6756;51.354;15.754;2023-06-01T17:16:29;23.90;1.00
13375;DHT22;6756;51.354;15.754;2023-06-01T17:20:34;24.20;1.00
13375;DHT22;6756;51.354;15.754;2023-06-01T17:24:35;24.40;1.00
13375;DHT22;6756;51.354;15.754;2023-06-01T17:28:36;24.80;1.00
13375;DHT22;6756;51.354;15.754;2023-06-01T17:32:37;24.90;1.00
13375;DHT22;6756;51.354;15.754;2023-06-01T17:36:38;24.60;1.00
13375;DHT22;6756;51.354;15.754;2023-06-01T17:40:42;24.80;1.00
13375;DHT22;6756;51.354;15.754;2023-06-01T17:44:43;25.10;1.00
13375;DHT22;6756;51.354;15.754;2023-06-01T17:48:44;25.00;1.00
13375;DHT22;6756;51.354;15.754;2023-06-01T17:52:45;24.90;1.00
13375;DHT22;6756;51.354;15.754;2023-06-01T17:56:46;24.90;1.00
13375;DHT22;6756;51.354;15.754;2023-06-01T18:00:47;24.80;1.00
13375;DHT22;6756;51.354;15.754;2023-06-01T18:04:48;24.90;1.00
13375;DHT22;6756;51.354;15.754;2023-06-01T18:08:51;24.70;1.00
13375;DHT22;6756;51.354;15.754;2023-06-01T18:12:52;24.50;1.00
13375;DHT22;6756;51.354;15.754;2023-06-01T18:16:53;24.30;1.00
13375;DHT22;6756;51.354;15.754;2023-06-01T18:20:54;24.10;1.00
13375;DHT22;6756;51.354;15.754;2023-06-01T18:24:55;24.00;1.00
13375;DHT22;6756;51.354;15.754;2023-06-01T18:28:56;23.80;1.00
13375;DHT22;6756;51.354;15.754;2023-06-01T18:32:59;23.40;1.00
13375;DHT22;6756;51.354;15.754;2023-06-01T18:37:00;23.10;1.00
13375;DHT22;6756;51.354;15.754;2023-06-01T18:41:01;22.90;1.00
13375;DHT22;6756;51.354;15.754;2023-06-01T18:45:03;22.60;1.00
13375;DHT22;6756;51.354;15.754;2023-06-01T18:49:05;22.20;1.00
13375;DHT22;6756;51.354;15.754;2023-06-01T18:53:08;21.70;1.00
13375;DHT22;6756;51.354;15.754;2023-06-01T18:57:09;21.30;1.00
13375;DHT22;6756;51.354;15.754;2023-06-01T19:01:13;20.90;1.00
13375;DHT22;6756;51.354;15.754;2023-06-01T19:05:22;20.60;1.00
13375;DHT22;6756;51.354;15.754;2023-06-01T19:09:23;20.30;1.00
13375;DHT22;6756;51.354;15.754;2023-06-01T19:13:34;19.90;1.00
13375;DHT22;6756;51.354;15.754;2023-06-01T19:17:39;19.50;1.00
13375;DHT22;6756;51.354;15.754;2023-06-01T19:21:43;19.00;1.00
13375;DHT22;6756;51.354;15.754;2023-06-01T19:25:44;18.70;1.00
13375;DHT22;6756;51.354;15.754;2023-06-01T19:29:45;18.30;1.00
13375;DHT22;6756;51.354;15.754;2023-06-01T19:33:47;18.00;1.00
13375;DHT22;6756;51.354;15.754;2023-06-01T19:37:50;17.70;1.00
13375;DHT22;6756;51.354;15.754;2023-06-01T19:41:53;17.30;1.00
13375;DHT22;6756;51.354;15.754;2023-06-01T19:45:54;17.10;1.00
13375;DHT22;6756;51.354;15.754;2023-06-01T19:50:00;16.80;1.00
13375;DHT22;6756;51.354;15.754;2023-06-01T19:54:02;16.70;1.00
13375;DHT22;6756;51.354;15.754;2023-06-01T19:58:07;16.50;1.00
13375;DHT22;6756;51.354;15.754;2023-06-01T20:06:38;16.20;1.00
13375;DHT22;6756;51.354;15.754;2023-06-01T20:10:39;16.20;1.00
13375;DHT22;6756;51.354;15.754;2023-06-01T20:14:47;16.20;1.00
13375;DHT22;6756;51.354;15.754;2023-06-01T20:18:49;16.10;1.00
13375;DHT22;6756;51.354;15.754;2023-06-01T20:22:50;16.00;1.00
13375;DHT22;6756;51.354;15.754;2023-06-01T20:26:56;15.80;1.00
13375;DHT22;6756;51.354;15.754;2023-06-01T20:31:04;15.70;1.00
13375;DHT22;6756;51.354;15.754;2023-06-01T20:35:08;15.60;1.00
13375;DHT22;6756;51.354;15.754;2023-06-01T20:39:12;15.50;1.00
13375;DHT22;6756;51.354;15.754;2023-06-01T20:43:23;15.20;1.00
13375;DHT22;6756;51.354;15.754;2023-06-01T20:47:24;14.90;1.00
13375;DHT22;6756;51.354;15.754;2023-06-01T20:51:31;14.60;1.00
13375;DHT22;6756;51.354;15.754;2023-06-01T20:55:38;14.40;1.00
13375;DHT22;6756;51.354;15.754;2023-06-01T20:59:41;14.20;1.00
13375;DHT22;6756;51.354;15.754;2023-06-01T21:03:42;14.00;1.00
13375;DHT22;6756;51.354;15.754;2023-06-01T21:07:43;13.90;1.00
13375;DHT22;6756;51.354;15.754;2023-06-01T21:11:45;13.80;1.00
13375;DHT22;6756;51.354;15.754;2023-06-01T21:15:56;13.60;1.00
13375;DHT22;6756;51.354;15.754;2023-06-01T21:19:58;13.50;1.00
13375;DHT22;6756;51.354;15.754;2023-06-01T21:23:59;13.30;1.00
13375;DHT22;6756;51.354;15.754;2023-06-01T21:28:00;13.20;1.00
13375;DHT22;6756;51.354;15.754;2023-06-01T21:32:02;13.10;1.00
13375;DHT22;6756;51.354;15.754;2023-06-01T21:36:04;13.10;1.00
13375;DHT22;6756;51.354;15.754;2023-06-01T21:40:05;12.90;1.00
13375;DHT22;6756;51.354;15.754;2023-06-01T21:44:06;12.80;1.00
13375;DHT22;6756;51.354;15.754;2023-06-01T21:48:07;12.70;1.00
13375;DHT22;6756;51.354;15.754;2023-06-01T21:52:08;12.60;1.00
13375;DHT22;6756;51.354;15.754;2023-06-01T21:56:09;12.50;1.00
13375;DHT22;6756;51.354;15.754;2023-06-01T22:00:13;12.40;1.00
13375;DHT22;6756;51.354;15.754;2023-06-01T22:04:16;12.30;1.00
13375;DHT22;6756;51.354;15.754;2023-06-01T22:08:17;12.20;1.00
13375;DHT22;6756;51.354;15.754;2023-06-01T22:12:18;12.20;1.00
13375;DHT22;6756;51.354;15.754;2023-06-01T22:16:19;12.10;1.00
13375;DHT22;6756;51.354;15.754;2023-06-01T22:20:26;12.00;1.00
13375;DHT22;6756;51.354;15.754;2023-06-01T22:24:27;11.90;1.00
13375;DHT22;6756;51.354;15.754;2023-06-01T22:28:28;11.70;1.00
13375;DHT22;6756;51.354;15.754;2023-06-01T22:32:29;11.70;1.00
13375;DHT22;6756;51.354;15.754;2023-06-01T22:36:30;11.50;8.40
13375;DHT22;6756;51.354;15.754;2023-06-01T22:40:31;11.50;12.70
13375;DHT22;6756;51.354;15.754;2023-06-01T22:44:35;11.40;18.40
13375;DHT22;6756;51.354;15.754;2023-06-01T22:48:36;11.30;27.60
13375;DHT22;6756;51.354;15.754;2023-06-01T22:52:37;11.20;37.10
13375;DHT22;6756;51.354;15.754;2023-06-01T22:56:39;11.10;50.00
13375;DHT22;6756;51.354;15.754;2023-06-01T23:00:48;11.00;64.10
13375;DHT22;6756;51.354;15.754;2023-06-01T23:04:52;10.90;80.50
13375;DHT22;6756;51.354;15.754;2023-06-01T23:08:53;10.80;95.40
13375;DHT22;6756;51.354;15.754;2023-06-01T23:12:55;10.70;99.90
13375;DHT22;6756;51.354;15.754;2023-06-01T23:17:01;10.60;99.90
13375;DHT22;6756;51.354;15.754;2023-06-01T23:21:04;10.60;99.90
13375;DHT22;6756;51.354;15.754;2023-06-01T23:25:05;10.50;99.90
13375;DHT22;6756;51.354;15.754;2023-06-01T23:29:06;10.40;99.90
13375;DHT22;6756;51.354;15.754;2023-06-01T23:33:08;10.30;99.90
13375;DHT22;6756;51.354;15.754;2023-06-01T23:37:09;10.20;99.90
13375;DHT22;6756;51.354;15.754;2023-06-01T23:41:13;10.10;99.90
13375;DHT22;6756;51.354;15.754;2023-06-01T23:45:18;10.00;99.90
13375;DHT22;6756;51.354;15.754;2023-06-01T23:49:22;10.00;99.90
13375;DHT22;6756;51.354;15.754;2023-06-01T23:53:23;9.90;99.90
13375;DHT22;6756;51.354;15.754;2023-06-01T23:57:24;9.70;99.90
